sensor_id;sensor_type;location;lat;lon;timestamp;P1;durP1;ratioP1;P2;durP2;ratioP2
68375;SDS011;55318;52.068;5.188;2023-03-01T00:01:09;6.0;;;3.4;;
68375;SDS011;55318;52.068;5.188;2023-03-01T00:02:49;5.7;;;3.3;;
68375;SDS011;55318;52.068;5.188;2023-03-01T00:04:26;9.21;;;4.41;;
68375;SDS011;55318;52.068;5.188;2023-03-01T00:06:03;6.7;;;3.6;;
68375;SDS011;55318;52.068;5.188;2023-03-01T00:09:16;6.2;;;3.7;;
68375;SDS011;55318;52.068;5.188;2023-03-01T00:11:01;8.0;;;4.0;;
68375;SDS011;55318;52.068;5.188;2023-03-01T00:12:39;5.0;;;3.4;;
68375;SDS011;55318;52.068;5.188;2023-03-01T00:14:16;8.9;;;4.0;;
68375;SDS011;55318;52.068;5.188;2023-03-01T00:17:28;6.2;;;3.7;;
68375;SDS011;55318;52.068;5.188;2023-03-01T00:19:04;6.4;;;4.3;;
68375;SDS011;55318;52.068;5.188;2023-03-01T00:20:41;12.0;;;4.0;;
68375;SDS011;55318;52.068;5.188;2023-03-01T00:23:53;5.3;;;4.3;;
68375;SDS011;55318;52.068;5.188;2023-03-01T00:25:30;8.9;;;4.0;;
68375;SDS011;55318;52.068;5.188;2023-03-01T00:27:07;5.11;;;3.6;;
68375;SDS011;55318;52.068;5.188;2023-03-01T00:30:20;9.31;;;3.8;;
68375;SDS011;55318;52.068;5.188;2023-03-01T00:31:56;6.4;;;4.2;;
68375;SDS011;55318;52.068;5.188;2023-03-01T00:33:32;6.2;;;4.0;;
68375;SDS011;55318;52.068;5.188;2023-03-01T00:36:45;6.7;;;4.1;;
68375;SDS011;55318;52.068;5.188;2023-03-01T00:38:22;6.7;;;3.6;;
68375;SDS011;55318;52.068;5.188;2023-03-01T00:39:58;7.5;;;4.2;;
68375;SDS011;55318;52.068;5.188;2023-03-01T00:41:34;6.7;;;4.0;;
68375;SDS011;55318;52.068;5.188;2023-03-01T00:44:46;5.3;;;3.7;;
68375;SDS011;55318;52.068;5.188;2023-03-01T00:46:23;6.1;;;3.5;;
68375;SDS011;55318;52.068;5.188;2023-03-01T00:52:53;6.4;;;4.8;;
68375;SDS011;55318;52.068;5.188;2023-03-01T00:54:30;8.0;;;4.41;;
68375;SDS011;55318;52.068;5.188;2023-03-01T00:56:08;6.9;;;4.1;;
68375;SDS011;55318;52.068;5.188;2023-03-01T00:59:21;7.4;;;4.0;;
68375;SDS011;55318;52.068;5.188;2023-03-01T01:00:58;8.0;;;5.2;;
68375;SDS011;55318;52.068;5.188;2023-03-01T01:02:34;7.0;;;4.41;;
68375;SDS011;55318;52.068;5.188;2023-03-01T01:05:49;7.0;;;4.41;;
68375;SDS011;55318;52.068;5.188;2023-03-01T01:07:25;6.9;;;4.0;;
68375;SDS011;55318;52.068;5.188;2023-03-01T01:09:02;6.7;;;4.1;;
68375;SDS011;55318;52.068;5.188;2023-03-01T01:12:19;7.7;;;4.5;;
68375;SDS011;55318;52.068;5.188;2023-03-01T01:13:56;10.1;;;4.3;;
68375;SDS011;55318;52.068;5.188;2023-03-01T01:15:33;8.71;;;4.7;;
68375;SDS011;55318;52.068;5.188;2023-03-01T01:17:10;7.4;;;4.5;;
68375;SDS011;55318;52.068;5.188;2023-03-01T01:20:22;7.3;;;4.7;;
68375;SDS011;55318;52.068;5.188;2023-03-01T01:21:58;7.7;;;4.5;;
68375;SDS011;55318;52.068;5.188;2023-03-01T01:23:34;9.81;;;4.7;;
68375;SDS011;55318;52.068;5.188;2023-03-01T01:26:48;7.0;;;4.41;;
68375;SDS011;55318;52.068;5.188;2023-03-01T01:28:25;8.1;;;4.8;;
68375;SDS011;55318;52.068;5.188;2023-03-01T01:30:01;7.6;;;4.0;;
68375;SDS011;55318;52.068;5.188;2023-03-01T01:33:17;8.71;;;4.61;;
68375;SDS011;55318;52.068;5.188;2023-03-01T01:34:53;8.5;;;4.91;;
68375;SDS011;55318;52.068;5.188;2023-03-01T01:36:30;8.4;;;4.7;;
68375;SDS011;55318;52.068;5.188;2023-03-01T01:38:09;8.71;;;4.8;;
68375;SDS011;55318;52.068;5.188;2023-03-01T01:41:21;8.0;;;5.0;;
68375;SDS011;55318;52.068;5.188;2023-03-01T01:42:59;8.31;;;4.8;;
68375;SDS011;55318;52.068;5.188;2023-03-01T01:44:35;13.1;;;5.2;;
68375;SDS011;55318;52.068;5.188;2023-03-01T01:47:57;9.81;;;5.0;;
68375;SDS011;55318;52.068;5.188;2023-03-01T01:49:40;10.3;;;5.7;;
68375;SDS011;55318;52.068;5.188;2023-03-01T01:51:21;8.31;;;4.8;;
68375;SDS011;55318;52.068;5.188;2023-03-01T01:53:01;7.4;;;4.61;;
68375;SDS011;55318;52.068;5.188;2023-03-01T01:56:21;7.8;;;5.6;;
68375;SDS011;55318;52.068;5.188;2023-03-01T01:58:02;8.1;;;5.2;;
68375;SDS011;55318;52.068;5.188;2023-03-01T01:59:43;8.31;;;5.7;;
68375;SDS011;55318;52.068;5.188;2023-03-01T02:01:25;8.71;;;5.7;;
68375;SDS011;55318;52.068;5.188;2023-03-01T02:03:03;9.0;;;5.11;;
68375;SDS011;55318;52.068;5.188;2023-03-01T02:06:25;10.4;;;5.5;;
68375;SDS011;55318;52.068;5.188;2023-03-01T02:08:05;10.0;;;5.6;;
68375;SDS011;55318;52.068;5.188;2023-03-01T02:09:44;8.2;;;5.11;;
68375;SDS011;55318;52.068;5.188;2023-03-01T02:11:24;11.0;;;5.8;;
68375;SDS011;55318;52.068;5.188;2023-03-01T02:14:40;9.0;;;5.3;;
68375;SDS011;55318;52.068;5.188;2023-03-01T02:16:16;7.4;;;5.0;;
68375;SDS011;55318;52.068;5.188;2023-03-01T02:17:53;11.6;;;6.1;;
68375;SDS011;55318;52.068;5.188;2023-03-01T02:21:37;10.3;;;6.2;;
68375;SDS011;55318;52.068;5.188;2023-03-01T02:23:24;9.0;;;5.3;;
68375;SDS011;55318;52.068;5.188;2023-03-01T02:25:03;9.31;;;5.2;;
68375;SDS011;55318;52.068;5.188;2023-03-01T02:26:51;10.4;;;6.2;;
68375;SDS011;55318;52.068;5.188;2023-03-01T02:28:31;10.5;;;5.7;;
68375;SDS011;55318;52.068;5.188;2023-03-01T02:31:46;8.31;;;5.7;;
68375;SDS011;55318;52.068;5.188;2023-03-01T02:33:23;7.4;;;5.0;;
68375;SDS011;55318;52.068;5.188;2023-03-01T02:35:01;9.9;;;5.2;;
68375;SDS011;55318;52.068;5.188;2023-03-01T02:36:38;7.8;;;5.3;;
68375;SDS011;55318;52.068;5.188;2023-03-01T02:39:56;8.5;;;5.8;;
68375;SDS011;55318;52.068;5.188;2023-03-01T02:41:37;9.0;;;5.4;;
68375;SDS011;55318;52.068;5.188;2023-03-01T02:43:17;12.4;;;6.1;;
68375;SDS011;55318;52.068;5.188;2023-03-01T02:44:57;8.1;;;5.5;;
68375;SDS011;55318;52.068;5.188;2023-03-01T02:48:18;9.31;;;5.9;;
68375;SDS011;55318;52.068;5.188;2023-03-01T02:49:55;11.1;;;6.5;;
68375;SDS011;55318;52.068;5.188;2023-03-01T02:51:34;12.0;;;6.0;;
68375;SDS011;55318;52.068;5.188;2023-03-01T02:53:25;8.81;;;5.6;;
68375;SDS011;55318;52.068;5.188;2023-03-01T02:56:49;10.7;;;6.2;;
68375;SDS011;55318;52.068;5.188;2023-03-01T02:58:27;14.0;;;6.8;;
68375;SDS011;55318;52.068;5.188;2023-03-01T03:00:04;9.31;;;5.5;;
68375;SDS011;55318;52.068;5.188;2023-03-01T03:01:44;9.6;;;5.6;;
68375;SDS011;55318;52.068;5.188;2023-03-01T03:04:57;10.3;;;5.8;;
68375;SDS011;55318;52.068;5.188;2023-03-01T03:06:33;8.81;;;6.0;;
68375;SDS011;55318;52.068;5.188;2023-03-01T03:08:09;11.2;;;6.7;;
68375;SDS011;55318;52.068;5.188;2023-03-01T03:11:22;9.5;;;5.8;;
68375;SDS011;55318;52.068;5.188;2023-03-01T03:13:00;9.71;;;5.8;;
68375;SDS011;55318;52.068;5.188;2023-03-01T03:14:37;9.81;;;5.4;;
68375;SDS011;55318;52.068;5.188;2023-03-01T03:17:50;8.2;;;5.3;;
68375;SDS011;55318;52.068;5.188;2023-03-01T03:19:28;10.4;;;5.7;;
68375;SDS011;55318;52.068;5.188;2023-03-01T03:21:05;9.71;;;5.8;;
68375;SDS011;55318;52.068;5.188;2023-03-01T03:22:43;13.3;;;7.1;;
68375;SDS011;55318;52.068;5.188;2023-03-01T03:25:55;9.5;;;5.8;;
68375;SDS011;55318;52.068;5.188;2023-03-01T03:27:31;11.4;;;5.2;;
68375;SDS011;55318;52.068;5.188;2023-03-01T03:29:08;9.5;;;6.5;;
68375;SDS011;55318;52.068;5.188;2023-03-01T03:32:20;10.8;;;6.3;;
68375;SDS011;55318;52.068;5.188;2023-03-01T03:33:56;8.2;;;5.6;;
68375;SDS011;55318;52.068;5.188;2023-03-01T03:35:33;9.6;;;5.6;;
68375;SDS011;55318;52.068;5.188;2023-03-01T03:37:15;12.2;;;6.0;;
68375;SDS011;55318;52.068;5.188;2023-03-01T03:40:28;10.0;;;6.0;;
68375;SDS011;55318;52.068;5.188;2023-03-01T03:42:08;9.1;;;5.7;;
68375;SDS011;55318;52.068;5.188;2023-03-01T03:43:44;10.0;;;5.9;;
68375;SDS011;55318;52.068;5.188;2023-03-01T03:46:56;9.0;;;6.0;;
68375;SDS011;55318;52.068;5.188;2023-03-01T03:48:33;10.21;;;5.8;;
68375;SDS011;55318;52.068;5.188;2023-03-01T03:50:10;9.0;;;5.9;;
68375;SDS011;55318;52.068;5.188;2023-03-01T03:53:25;8.71;;;5.5;;
68375;SDS011;55318;52.068;5.188;2023-03-01T03:55:03;10.21;;;6.2;;
68375;SDS011;55318;52.068;5.188;2023-03-01T03:56:40;10.21;;;5.8;;
68375;SDS011;55318;52.068;5.188;2023-03-01T03:58:16;9.1;;;6.0;;
68375;SDS011;55318;52.068;5.188;2023-03-01T04:01:30;9.0;;;6.3;;
68375;SDS011;55318;52.068;5.188;2023-03-01T04:03:07;9.0;;;6.3;;
68375;SDS011;55318;52.068;5.188;2023-03-01T04:04:45;9.0;;;5.9;;
68375;SDS011;55318;52.068;5.188;2023-03-01T04:07:58;10.7;;;6.0;;
68375;SDS011;55318;52.068;5.188;2023-03-01T04:09:35;9.6;;;6.2;;
68375;SDS011;55318;52.068;5.188;2023-03-01T04:11:11;10.3;;;6.4;;
68375;SDS011;55318;52.068;5.188;2023-03-01T04:12:48;8.9;;;6.0;;
68375;SDS011;55318;52.068;5.188;2023-03-01T04:16:00;9.31;;;5.7;;
68375;SDS011;55318;52.068;5.188;2023-03-01T04:17:37;9.21;;;5.8;;
68375;SDS011;55318;52.068;5.188;2023-03-01T04:19:13;10.7;;;6.1;;
68375;SDS011;55318;52.068;5.188;2023-03-01T04:22:26;13.6;;;6.3;;
68375;SDS011;55318;52.068;5.188;2023-03-01T04:24:02;9.31;;;5.4;;
68375;SDS011;55318;52.068;5.188;2023-03-01T04:25:39;10.21;;;6.8;;
68375;SDS011;55318;52.068;5.188;2023-03-01T04:28:54;9.4;;;5.4;;
68375;SDS011;55318;52.068;5.188;2023-03-01T04:30:30;8.9;;;5.8;;
68375;SDS011;55318;52.068;5.188;2023-03-01T04:32:06;8.4;;;5.6;;
68375;SDS011;55318;52.068;5.188;2023-03-01T04:33:42;14.4;;;5.9;;
68375;SDS011;55318;52.068;5.188;2023-03-01T04:36:56;9.71;;;6.3;;
68375;SDS011;55318;52.068;5.188;2023-03-01T04:38:32;8.1;;;5.11;;
68375;SDS011;55318;52.068;5.188;2023-03-01T04:40:09;9.4;;;5.7;;
68375;SDS011;55318;52.068;5.188;2023-03-01T04:43:23;8.6;;;5.7;;
68375;SDS011;55318;52.068;5.188;2023-03-01T04:44:59;9.21;;;5.6;;
68375;SDS011;55318;52.068;5.188;2023-03-01T04:46:35;10.1;;;6.0;;
68375;SDS011;55318;52.068;5.188;2023-03-01T04:49:48;10.0;;;5.8;;
68375;SDS011;55318;52.068;5.188;2023-03-01T04:51:25;10.9;;;6.5;;
68375;SDS011;55318;52.068;5.188;2023-03-01T04:53:01;9.71;;;6.9;;
68375;SDS011;55318;52.068;5.188;2023-03-01T04:54:38;9.31;;;5.9;;
68375;SDS011;55318;52.068;5.188;2023-03-01T04:57:52;9.0;;;5.9;;
68375;SDS011;55318;52.068;5.188;2023-03-01T04:59:29;8.6;;;6.2;;
68375;SDS011;55318;52.068;5.188;2023-03-01T05:01:08;8.31;;;5.4;;
68375;SDS011;55318;52.068;5.188;2023-03-01T05:04:24;9.81;;;5.5;;
68375;SDS011;55318;52.068;5.188;2023-03-01T05:06:00;8.5;;;5.0;;
68375;SDS011;55318;52.068;5.188;2023-03-01T05:07:36;9.0;;;5.2;;
68375;SDS011;55318;52.068;5.188;2023-03-01T05:10:50;12.1;;;6.0;;
68375;SDS011;55318;52.068;5.188;2023-03-01T05:12:28;9.1;;;6.2;;
68375;SDS011;55318;52.068;5.188;2023-03-01T05:15:42;7.7;;;5.7;;
68375;SDS011;55318;52.068;5.188;2023-03-01T05:18:54;11.1;;;6.2;;
68375;SDS011;55318;52.068;5.188;2023-03-01T05:20:30;8.6;;;5.4;;
68375;SDS011;55318;52.068;5.188;2023-03-01T05:22:06;11.4;;;6.6;;
68375;SDS011;55318;52.068;5.188;2023-03-01T05:25:20;9.4;;;6.3;;
68375;SDS011;55318;52.068;5.188;2023-03-01T05:26:57;10.21;;;6.0;;
68375;SDS011;55318;52.068;5.188;2023-03-01T05:28:34;10.1;;;6.3;;
68375;SDS011;55318;52.068;5.188;2023-03-01T05:30:11;9.31;;;6.1;;
68375;SDS011;55318;52.068;5.188;2023-03-01T05:33:25;9.4;;;5.5;;
68375;SDS011;55318;52.068;5.188;2023-03-01T05:35:03;9.71;;;5.9;;
68375;SDS011;55318;52.068;5.188;2023-03-01T05:36:40;8.5;;;5.3;;
68375;SDS011;55318;52.068;5.188;2023-03-01T05:39:52;8.6;;;5.5;;
68375;SDS011;55318;52.068;5.188;2023-03-01T05:41:28;10.1;;;5.3;;
68375;SDS011;55318;52.068;5.188;2023-03-01T05:43:04;10.1;;;5.9;;
68375;SDS011;55318;52.068;5.188;2023-03-01T05:46:18;8.5;;;6.4;;
68375;SDS011;55318;52.068;5.188;2023-03-01T05:47:54;8.81;;;6.4;;
68375;SDS011;55318;52.068;5.188;2023-03-01T05:49:31;8.81;;;6.0;;
68375;SDS011;55318;52.068;5.188;2023-03-01T05:51:07;8.71;;;5.8;;
68375;SDS011;55318;52.068;5.188;2023-03-01T05:54:21;11.8;;;5.9;;
68375;SDS011;55318;52.068;5.188;2023-03-01T05:55:58;10.7;;;5.8;;
68375;SDS011;55318;52.068;5.188;2023-03-01T05:57:35;10.4;;;6.4;;
68375;SDS011;55318;52.068;5.188;2023-03-01T06:00:47;11.7;;;7.1;;
68375;SDS011;55318;52.068;5.188;2023-03-01T06:02:24;10.6;;;6.6;;
68375;SDS011;55318;52.068;5.188;2023-03-01T06:04:00;9.71;;;6.7;;
68375;SDS011;55318;52.068;5.188;2023-03-01T06:07:15;11.9;;;6.2;;
68375;SDS011;55318;52.068;5.188;2023-03-01T06:08:51;9.9;;;6.7;;
68375;SDS011;55318;52.068;5.188;2023-03-01T06:10:28;12.9;;;7.2;;
68375;SDS011;55318;52.068;5.188;2023-03-01T06:12:05;10.4;;;6.9;;
68375;SDS011;55318;52.068;5.188;2023-03-01T06:15:19;13.1;;;7.3;;
68375;SDS011;55318;52.068;5.188;2023-03-01T06:16:57;13.0;;;6.8;;
68375;SDS011;55318;52.068;5.188;2023-03-01T06:18:34;11.6;;;6.7;;
68375;SDS011;55318;52.068;5.188;2023-03-01T06:21:50;11.0;;;6.3;;
68375;SDS011;55318;52.068;5.188;2023-03-01T06:23:26;10.0;;;6.3;;
68375;SDS011;55318;52.068;5.188;2023-03-01T06:25:02;14.3;;;7.0;;
68375;SDS011;55318;52.068;5.188;2023-03-01T06:26:40;10.1;;;6.5;;
68375;SDS011;55318;52.068;5.188;2023-03-01T06:29:52;8.81;;;6.2;;
68375;SDS011;55318;52.068;5.188;2023-03-01T06:31:29;11.0;;;6.6;;
68375;SDS011;55318;52.068;5.188;2023-03-01T06:33:05;11.4;;;6.8;;
68375;SDS011;55318;52.068;5.188;2023-03-01T06:36:17;10.7;;;7.1;;
68375;SDS011;55318;52.068;5.188;2023-03-01T06:37:53;10.21;;;6.2;;
68375;SDS011;55318;52.068;5.188;2023-03-01T06:39:29;11.1;;;6.5;;
68375;SDS011;55318;52.068;5.188;2023-03-01T06:42:43;10.1;;;6.1;;
68375;SDS011;55318;52.068;5.188;2023-03-01T06:44:25;14.0;;;7.2;;
68375;SDS011;55318;52.068;5.188;2023-03-01T06:46:03;9.4;;;5.9;;
68375;SDS011;55318;52.068;5.188;2023-03-01T06:47:40;9.9;;;5.7;;
68375;SDS011;55318;52.068;5.188;2023-03-01T06:52:29;11.1;;;6.3;;
68375;SDS011;55318;52.068;5.188;2023-03-01T06:54:07;10.1;;;6.1;;
68375;SDS011;55318;52.068;5.188;2023-03-01T06:57:19;12.0;;;6.3;;
68375;SDS011;55318;52.068;5.188;2023-03-01T06:58:55;9.71;;;6.1;;
68375;SDS011;55318;52.068;5.188;2023-03-01T07:00:32;10.3;;;5.8;;
68375;SDS011;55318;52.068;5.188;2023-03-01T07:03:46;9.6;;;5.8;;
68375;SDS011;55318;52.068;5.188;2023-03-01T07:05:23;10.3;;;6.9;;
68375;SDS011;55318;52.068;5.188;2023-03-01T07:06:59;11.0;;;6.2;;
68375;SDS011;55318;52.068;5.188;2023-03-01T07:08:35;11.0;;;6.3;;
68375;SDS011;55318;52.068;5.188;2023-03-01T07:11:48;12.1;;;6.4;;
68375;SDS011;55318;52.068;5.188;2023-03-01T07:13:25;11.7;;;6.3;;
68375;SDS011;55318;52.068;5.188;2023-03-01T07:15:02;10.8;;;6.8;;
68375;SDS011;55318;52.068;5.188;2023-03-01T07:18:16;12.0;;;6.2;;
68375;SDS011;55318;52.068;5.188;2023-03-01T07:19:52;10.3;;;6.3;;
68375;SDS011;55318;52.068;5.188;2023-03-01T07:21:29;12.0;;;5.8;;
68375;SDS011;55318;52.068;5.188;2023-03-01T07:24:43;11.5;;;6.4;;
68375;SDS011;55318;52.068;5.188;2023-03-01T07:26:19;10.7;;;6.5;;
68375;SDS011;55318;52.068;5.188;2023-03-01T07:27:55;13.0;;;6.9;;
68375;SDS011;55318;52.068;5.188;2023-03-01T07:29:31;11.4;;;6.1;;
68375;SDS011;55318;52.068;5.188;2023-03-01T07:32:43;10.0;;;5.11;;
68375;SDS011;55318;52.068;5.188;2023-03-01T07:34:20;8.31;;;5.3;;
68375;SDS011;55318;52.068;5.188;2023-03-01T07:35:56;9.1;;;5.2;;
68375;SDS011;55318;52.068;5.188;2023-03-01T07:39:09;9.9;;;6.1;;
68375;SDS011;55318;52.068;5.188;2023-03-01T07:40:46;9.71;;;5.2;;
68375;SDS011;55318;52.068;5.188;2023-03-01T07:42:22;9.21;;;5.0;;
68375;SDS011;55318;52.068;5.188;2023-03-01T07:45:35;9.21;;;5.11;;
68375;SDS011;55318;52.068;5.188;2023-03-01T07:47:11;7.6;;;4.8;;
68375;SDS011;55318;52.068;5.188;2023-03-01T07:48:47;8.71;;;4.91;;
68375;SDS011;55318;52.068;5.188;2023-03-01T07:50:23;10.7;;;5.7;;
68375;SDS011;55318;52.068;5.188;2023-03-01T07:53:35;10.1;;;5.6;;
68375;SDS011;55318;52.068;5.188;2023-03-01T07:55:13;12.0;;;5.7;;
68375;SDS011;55318;52.068;5.188;2023-03-01T07:56:50;11.2;;;6.7;;
68375;SDS011;55318;52.068;5.188;2023-03-01T08:00:03;8.0;;;5.4;;
68375;SDS011;55318;52.068;5.188;2023-03-01T08:01:40;12.0;;;5.4;;
68375;SDS011;55318;52.068;5.188;2023-03-01T08:03:16;9.0;;;4.91;;
68375;SDS011;55318;52.068;5.188;2023-03-01T08:06:29;9.5;;;5.2;;
68375;SDS011;55318;52.068;5.188;2023-03-01T08:08:05;8.2;;;5.3;;
68375;SDS011;55318;52.068;5.188;2023-03-01T08:09:41;8.31;;;4.7;;
68375;SDS011;55318;52.068;5.188;2023-03-01T08:11:18;7.1;;;4.41;;
68375;SDS011;55318;52.068;5.188;2023-03-01T08:14:30;8.4;;;4.7;;
68375;SDS011;55318;52.068;5.188;2023-03-01T08:16:07;8.2;;;4.2;;
68375;SDS011;55318;52.068;5.188;2023-03-01T08:17:45;7.0;;;4.7;;
68375;SDS011;55318;52.068;5.188;2023-03-01T08:21:02;8.9;;;4.7;;
68375;SDS011;55318;52.068;5.188;2023-03-01T08:22:40;8.4;;;5.3;;
68375;SDS011;55318;52.068;5.188;2023-03-01T08:24:16;7.3;;;4.61;;
68375;SDS011;55318;52.068;5.188;2023-03-01T08:25:52;9.71;;;4.91;;
68375;SDS011;55318;52.068;5.188;2023-03-01T08:29:04;7.5;;;4.1;;
68375;SDS011;55318;52.068;5.188;2023-03-01T08:30:40;7.3;;;4.41;;
68375;SDS011;55318;52.068;5.188;2023-03-01T08:32:17;6.9;;;3.6;;
68375;SDS011;55318;52.068;5.188;2023-03-01T08:35:33;6.5;;;3.3;;
68375;SDS011;55318;52.068;5.188;2023-03-01T08:37:09;7.3;;;3.8;;
68375;SDS011;55318;52.068;5.188;2023-03-01T08:38:45;5.7;;;3.5;;
68375;SDS011;55318;52.068;5.188;2023-03-01T08:41:58;5.7;;;3.5;;
68375;SDS011;55318;52.068;5.188;2023-03-01T08:43:34;5.11;;;3.0;;
68375;SDS011;55318;52.068;5.188;2023-03-01T08:45:10;8.0;;;3.8;;
68375;SDS011;55318;52.068;5.188;2023-03-01T08:46:47;5.7;;;3.0;;
68375;SDS011;55318;52.068;5.188;2023-03-01T08:50:00;5.3;;;3.0;;
68375;SDS011;55318;52.068;5.188;2023-03-01T08:51:38;6.0;;;2.9;;
68375;SDS011;55318;52.068;5.188;2023-03-01T08:53:15;4.91;;;2.8;;
68375;SDS011;55318;52.068;5.188;2023-03-01T08:56:27;4.2;;;2.7;;
68375;SDS011;55318;52.068;5.188;2023-03-01T08:58:03;4.41;;;2.8;;
68375;SDS011;55318;52.068;5.188;2023-03-01T08:59:39;5.11;;;3.3;;
68375;SDS011;55318;52.068;5.188;2023-03-01T09:02:55;5.4;;;3.3;;
68375;SDS011;55318;52.068;5.188;2023-03-01T09:04:31;6.0;;;3.0;;
68375;SDS011;55318;52.068;5.188;2023-03-01T09:06:07;3.3;;;2.5;;
68375;SDS011;55318;52.068;5.188;2023-03-01T09:07:44;10.1;;;2.9;;
68375;SDS011;55318;52.068;5.188;2023-03-01T09:10:56;3.1;;;2.6;;
68375;SDS011;55318;52.068;5.188;2023-03-01T09:12:32;3.7;;;2.6;;
68375;SDS011;55318;52.068;5.188;2023-03-01T09:18:57;4.2;;;2.6;;
68375;SDS011;55318;52.068;5.188;2023-03-01T09:20:33;5.9;;;3.2;;
68375;SDS011;55318;52.068;5.188;2023-03-01T09:23:46;5.3;;;3.2;;
68375;SDS011;55318;52.068;5.188;2023-03-01T09:25:24;3.4;;;2.6;;
68375;SDS011;55318;52.068;5.188;2023-03-01T09:27:00;4.3;;;3.1;;
68375;SDS011;55318;52.068;5.188;2023-03-01T09:30:13;4.7;;;2.5;;
68375;SDS011;55318;52.068;5.188;2023-03-01T09:31:49;8.6;;;3.5;;
68375;SDS011;55318;52.068;5.188;2023-03-01T09:33:26;3.9;;;2.6;;
68375;SDS011;55318;52.068;5.188;2023-03-01T09:35:03;4.0;;;3.1;;
68375;SDS011;55318;52.068;5.188;2023-03-01T09:38:16;5.0;;;2.6;;
68375;SDS011;55318;52.068;5.188;2023-03-01T09:39:52;3.5;;;2.9;;
68375;SDS011;55318;52.068;5.188;2023-03-01T09:41:33;2.8;;;2.21;;
68375;SDS011;55318;52.068;5.188;2023-03-01T09:43:34;3.5;;;1.8;;
68375;SDS011;55318;52.068;5.188;2023-03-01T09:45:26;2.7;;;1.9;;
68375;SDS011;55318;52.068;5.188;2023-03-01T09:48:55;2.1;;;1.6;;
68375;SDS011;55318;52.068;5.188;2023-03-01T09:50:38;1.8;;;1.3;;
68375;SDS011;55318;52.068;5.188;2023-03-01T09:52:19;3.2;;;1.3;;
68375;SDS011;55318;52.068;5.188;2023-03-01T09:54:05;2.0;;;1.6;;
68375;SDS011;55318;52.068;5.188;2023-03-01T09:57:25;3.3;;;2.0;;
68375;SDS011;55318;52.068;5.188;2023-03-01T09:59:09;2.7;;;1.6;;
68375;SDS011;55318;52.068;5.188;2023-03-01T10:00:59;1.6;;;1.5;;
68375;SDS011;55318;52.068;5.188;2023-03-01T10:02:46;1.9;;;1.3;;
68375;SDS011;55318;52.068;5.188;2023-03-01T10:04:28;1.6;;;1.5;;
68375;SDS011;55318;52.068;5.188;2023-03-01T10:06:18;1.6;;;1.2;;
68375;SDS011;55318;52.068;5.188;2023-03-01T10:10:01;2.0;;;1.8;;
68375;SDS011;55318;52.068;5.188;2023-03-01T10:11:41;2.21;;;2.0;;
68375;SDS011;55318;52.068;5.188;2023-03-01T10:13:21;3.7;;;2.0;;
68375;SDS011;55318;52.068;5.188;2023-03-01T10:15:05;2.0;;;1.8;;
68375;SDS011;55318;52.068;5.188;2023-03-01T10:16:48;1.8;;;1.3;;
68375;SDS011;55318;52.068;5.188;2023-03-01T10:20:14;2.5;;;1.4;;
68375;SDS011;55318;52.068;5.188;2023-03-01T10:22:00;2.7;;;1.7;;
68375;SDS011;55318;52.068;5.188;2023-03-01T10:23:45;2.1;;;1.7;;
68375;SDS011;55318;52.068;5.188;2023-03-01T10:25:32;1.9;;;1.5;;
68375;SDS011;55318;52.068;5.188;2023-03-01T10:27:22;4.2;;;2.5;;
68375;SDS011;55318;52.068;5.188;2023-03-01T10:30:40;2.4;;;1.5;;
68375;SDS011;55318;52.068;5.188;2023-03-01T10:32:17;2.5;;;1.7;;
68375;SDS011;55318;52.068;5.188;2023-03-01T10:33:54;2.6;;;1.6;;
68375;SDS011;55318;52.068;5.188;2023-03-01T10:37:10;2.21;;;1.2;;
68375;SDS011;55318;52.068;5.188;2023-03-01T10:38:49;2.5;;;1.5;;
68375;SDS011;55318;52.068;5.188;2023-03-01T10:40:27;2.1;;;1.3;;
68375;SDS011;55318;52.068;5.188;2023-03-01T10:42:04;2.4;;;1.4;;
68375;SDS011;55318;52.068;5.188;2023-03-01T10:45:33;4.3;;;2.4;;
68375;SDS011;55318;52.068;5.188;2023-03-01T10:47:13;4.0;;;2.0;;
68375;SDS011;55318;52.068;5.188;2023-03-01T10:49:25;4.0;;;1.7;;
68375;SDS011;55318;52.068;5.188;2023-03-01T10:51:05;2.31;;;1.7;;
68375;SDS011;55318;52.068;5.188;2023-03-01T10:52:42;2.21;;;1.3;;
68375;SDS011;55318;52.068;5.188;2023-03-01T10:54:33;2.7;;;1.5;;
68375;SDS011;55318;52.068;5.188;2023-03-01T10:57:48;2.1;;;1.2;;
68375;SDS011;55318;52.068;5.188;2023-03-01T10:59:27;2.7;;;1.3;;
68375;SDS011;55318;52.068;5.188;2023-03-01T11:01:09;2.21;;;1.11;;
68375;SDS011;55318;52.068;5.188;2023-03-01T11:03:08;1.9;;;1.7;;
68375;SDS011;55318;52.068;5.188;2023-03-01T11:06:58;1.9;;;1.5;;
68375;SDS011;55318;52.068;5.188;2023-03-01T11:08:38;1.9;;;1.5;;
68375;SDS011;55318;52.068;5.188;2023-03-01T11:10:18;2.6;;;1.2;;
68375;SDS011;55318;52.068;5.188;2023-03-01T11:11:57;1.9;;;1.4;;
68375;SDS011;55318;52.068;5.188;2023-03-01T11:13:36;1.6;;;1.4;;
68375;SDS011;55318;52.068;5.188;2023-03-01T11:15:25;2.31;;;1.11;;
68375;SDS011;55318;52.068;5.188;2023-03-01T11:18:55;2.6;;;1.4;;
68375;SDS011;55318;52.068;5.188;2023-03-01T11:20:33;4.2;;;2.21;;
68375;SDS011;55318;52.068;5.188;2023-03-01T11:22:12;3.1;;;1.6;;
68375;SDS011;55318;52.068;5.188;2023-03-01T11:23:53;2.6;;;1.5;;
68375;SDS011;55318;52.068;5.188;2023-03-01T11:27:19;2.8;;;1.5;;
68375;SDS011;55318;52.068;5.188;2023-03-01T11:29:00;2.5;;;1.7;;
68375;SDS011;55318;52.068;5.188;2023-03-01T11:30:43;2.1;;;1.5;;
68375;SDS011;55318;52.068;5.188;2023-03-01T11:32:27;2.31;;;1.5;;
68375;SDS011;55318;52.068;5.188;2023-03-01T11:34:24;2.7;;;1.6;;
68375;SDS011;55318;52.068;5.188;2023-03-01T11:36:26;2.6;;;1.4;;
68375;SDS011;55318;52.068;5.188;2023-03-01T11:39:58;2.6;;;1.7;;
68375;SDS011;55318;52.068;5.188;2023-03-01T11:41:42;3.5;;;1.6;;
68375;SDS011;55318;52.068;5.188;2023-03-01T11:43:26;3.1;;;1.2;;
68375;SDS011;55318;52.068;5.188;2023-03-01T11:45:10;2.21;;;1.11;;
68375;SDS011;55318;52.068;5.188;2023-03-01T11:46:51;2.31;;;1.5;;
68375;SDS011;55318;52.068;5.188;2023-03-01T11:49:17;2.1;;;1.6;;
68375;SDS011;55318;52.068;5.188;2023-03-01T11:52:17;2.0;;;1.6;;
68375;SDS011;55318;52.068;5.188;2023-03-01T11:54:13;2.7;;;1.5;;
68375;SDS011;55318;52.068;5.188;2023-03-01T11:56:04;3.2;;;1.3;;
68375;SDS011;55318;52.068;5.188;2023-03-01T11:57:57;1.5;;;1.3;;
68375;SDS011;55318;52.068;5.188;2023-03-01T12:00:02;2.6;;;1.3;;
68375;SDS011;55318;52.068;5.188;2023-03-01T12:02:02;5.0;;;1.3;;
68375;SDS011;55318;52.068;5.188;2023-03-01T12:05:02;1.7;;;1.2;;
68375;SDS011;55318;52.068;5.188;2023-03-01T12:07:56;1.7;;;0.9;;
68375;SDS011;55318;52.068;5.188;2023-03-01T12:09:47;5.2;;;1.5;;
68375;SDS011;55318;52.068;5.188;2023-03-01T12:15:44;2.0;;;1.2;;
68375;SDS011;55318;52.068;5.188;2023-03-01T12:17:55;3.1;;;1.0;;
68375;SDS011;55318;52.068;5.188;2023-03-01T12:19:54;1.3;;;1.0;;
68375;SDS011;55318;52.068;5.188;2023-03-01T12:21:53;1.9;;;1.4;;
68375;SDS011;55318;52.068;5.188;2023-03-01T12:24:04;1.8;;;1.0;;
68375;SDS011;55318;52.068;5.188;2023-03-01T12:26:57;1.11;;;1.0;;
68375;SDS011;55318;52.068;5.188;2023-03-01T12:28:55;0.9;;;0.9;;
68375;SDS011;55318;52.068;5.188;2023-03-01T12:31:04;2.4;;;1.11;;
68375;SDS011;55318;52.068;5.188;2023-03-01T12:33:50;2.21;;;1.6;;
68375;SDS011;55318;52.068;5.188;2023-03-01T12:35:36;2.0;;;1.6;;
68375;SDS011;55318;52.068;5.188;2023-03-01T12:37:29;2.0;;;1.6;;
68375;SDS011;55318;52.068;5.188;2023-03-01T12:39:22;2.5;;;1.11;;
68375;SDS011;55318;52.068;5.188;2023-03-01T12:41:21;2.0;;;1.11;;
68375;SDS011;55318;52.068;5.188;2023-03-01T12:43:47;1.8;;;1.6;;
68375;SDS011;55318;52.068;5.188;2023-03-01T12:45:43;4.7;;;1.5;;
68375;SDS011;55318;52.068;5.188;2023-03-01T12:47:35;2.8;;;1.2;;
68375;SDS011;55318;52.068;5.188;2023-03-01T12:49:32;1.7;;;1.3;;
68375;SDS011;55318;52.068;5.188;2023-03-01T12:52:57;1.8;;;1.3;;
68375;SDS011;55318;52.068;5.188;2023-03-01T12:54:34;2.31;;;1.3;;
68375;SDS011;55318;52.068;5.188;2023-03-01T12:56:14;2.6;;;1.6;;
68375;SDS011;55318;52.068;5.188;2023-03-01T12:57:55;1.7;;;1.4;;
68375;SDS011;55318;52.068;5.188;2023-03-01T13:01:31;2.21;;;1.2;;
68375;SDS011;55318;52.068;5.188;2023-03-01T13:03:19;2.31;;;1.3;;
68375;SDS011;55318;52.068;5.188;2023-03-01T13:05:14;2.21;;;1.2;;
68375;SDS011;55318;52.068;5.188;2023-03-01T13:07:04;3.6;;;1.9;;
68375;SDS011;55318;52.068;5.188;2023-03-01T13:08:53;2.31;;;1.3;;
68375;SDS011;55318;52.068;5.188;2023-03-01T13:10:43;2.8;;;1.5;;